Flugplatz Neumarkt/Opf. (EDPO)

Hier findest Du alle Informationen zum Flugplatz Neumarkt/Opf. (EDPO).

Informationen für Piloten zum Flugplatz Neumarkt/Opf.

Hier findest Du alle relevanten Informationen, die Du als Pilot benötigst, um Neumarkt/Opf. anzufliegen.

Flugplatz: Neumarkt/Opf. ICAO-Code: EDPO
Frequenz Turm: 119,975 Mhz GAFOR Gebiet: 55
Frequenz Ground: 119,975 Mhz Mogas: nein
Platzrunde: N 2200 ft Landegebühr: -
Platzhöhe: - Sunrise: 06:27 Uhr UTC
Pisten: 09/27 - 350 m x 11 m, Sunset: 15:31 Uhr UTC

Flugwetter am Flugplatz Neumarkt/Opf.

Die METAR Information stammen aus EDDN (35.58 km entfernt).

METAR Code:
2019/11/17 20:20
EDDN 172020Z 19004KT 5000 BR BKN004 06/06 Q1002 TEMPO BKN005

Temperatur: 5,0 °C Niederschlag: - Wind: 7,0 kt
Temperatur (min.): 3,9 °C Luftdruck: 1004 hPa Windrichtung: 200 °
Temperatur (max.): 6,1 °C Luftfeuchtigkeit: 86 % Bewölkung: 6/8

Flugschulen am Flugplatz Neumarkt/Opf.

Am Flugplatz Neumarkt/Opf. gibt es leider keine Flugschule.

Benachbarte Flugplätze und Flugschulen

Es gibt 19 weitere Flugplätze in einem Umkreis von 50 km um den Flugplatz Neumarkt/Opf..

Jetzt anmelden

Passwort vergessen

Anzeige: Skymap
Umfrage Archiv

Lasst Ihr Euch bei Überlandflügen von FIS begleiten?

Ja, immer!
51.6 %
Ja, unregelmäßig!
25.8 %
Ja, aber nur selten!
22.6 %
Nein, nie!
0 %
Stimmen: 31 | Diskussion
Anzeige: Roland Aircraft
Statistik Alle Mitglieder

Aktuell sind 29 Besucher online.

Anzeige: VFR Sprechfunk Simulator


Anzeige: Pocket FMS